Oshkosh, WI (54901)

1:49 PM CST on December 05, 2016 (GMT -0600)
Ferry Crossing Neighborhood | | Change Station

Elev 781 ft 44.05 °N, 88.56 °W | Updated 8 seconds ago

Overcast
Overcast
34.5 °F
Feels Like 31 °F
N
3.7
Wind Variable Wind from South
Gusts 8.3 mph

Today
High -- | Low -- °F
--% Chance of Precip.
Yesterday
High -- | Low -- °F
Precip. -- in
Pressure 29.97 in
Visibility 5.0 miles
Clouds Overcast 500 ft
Windchill 31 °F
Dew Point 32 °F
Humidity 92%
Rainfall 0.53 in
Snow Depth Not available.
7:13 AM 4:16 PM
Waxing Crescent, 34% visible
METAR KOSH 051853Z 19011G15KT 5SM BR OVC005 01/M01 A2993 RMK AO2 SLP147 T00061006
Pressure 29.97 in
Visibility 5.0 miles
Clouds Overcast 500 ft
Windchill 31 °F
Dew Point 32 °F
Humidity 92%
Rainfall 0.53 in
Snow Depth Not available.
7:13 AM 4:16 PM
Waxing Crescent, 34% visible
METAR KOSH 051853Z 19011G15KT 5SM BR OVC005 01/M01 A2993 RMK AO2 SLP147 T00061006

10-Day Weather Forecast

Almanac

Astronomy

Dec. 05, 2016 Rise Set
Actual Time
Civil Twilight
Nautical Twilight
Astronomical Twilight
Moon
Length of Visible Light
Length of Day
Tomorrow will be .
, % of the Moon is Illuminated

Today's Extremes

State Highs State Lows

Community

WunderPhotos

Upload Photos

1,955,852 photos uploaded!

WunderBlog® & News

Nearby

Air Quality

  Air Quality AQ Index Pollutant
Not available.

Snow Depth

Station Depth Elevation

Earthquake Activity

City Distance Mag. Time & Date
Minimum magnitude displayed is 2.5.

Coastal Water Temperatures

Place Temperature

Stations

Nearby Weather Stations

Station Location Temp. Windchill Dew Point Humidity Wind Precip. Elev Updated Type
                   

Watches & Warnings

There are currently no watches in effect.